PST,Max TemperatureF,Mean TemperatureF,Min TemperatureF,Max Dew PointF,MeanDew PointF,Min DewpointF,Max Humidity, Mean Humidity, Min Humidity, Max Sea Level PressureIn, Mean Sea Level PressureIn, Min Sea Level PressureIn, Max VisibilityMiles, Mean VisibilityMiles, Min VisibilityMiles, Max Wind SpeedMPH, Mean Wind SpeedMPH, Max Gust SpeedMPH,PrecipitationIn, CloudCover, Events, WindDirDegrees
2013-2-1,56,43,29,33,30,26,92,67,41,30.48,30.38,30.28,10,10,10,10,3,14,0.00,0,,273
2013-2-2,53,39,24,34,28,21,88,69,50,30.50,30.41,30.29,10,10,8,24,2,26,0.00,0,,271
2013-2-3,45,35,25,33,29,21,92,77,62,30.28,30.23,30.17,10,7,5,12,2,25,0.00,2,,277
2013-2-4,52,41,30,36,32,28,92,74,56,30.18,30.10,29.96,10,8,3,9,2,13,0.00,3,,193
2013-2-5,57,42,27,36,31,25,92,64,35,29.94,29.89,29.84,10,8,5,26,5,36,0.00,3,,256
2013-2-6,51,39,27,34,30,23,85,68,50,30.07,30.00,29.91,10,10,10,22,4,26,T,4,,236
2013-2-7,53,41,28,32,26,20,85,57,28,30.10,29.98,29.88,10,10,10,9,3,14,0.00,3,,275
2013-2-8,53,39,24,25,21,19,75,52,28,30.20,30.16,30.12,10,10,10,14,3,20,0.00,0,,293
2013-2-9,52,39,25,30,25,19,81,61,41,30.24,30.15,30.09,10,10,10,13,5,16,0.00,0,,283
2013-2-10,55,41,26,29,26,22,85,60,35,30.32,30.27,30.22,10,10,10,12,5,13,0.00,0,,261
2013-2-11,55,39,22,33,27,19,88,65,41,30.27,30.23,30.19,10,10,7,16,3,20,0.00,0,,219
2013-2-12,58,45,31,35,31,27,85,63,40,30.35,30.29,30.22,10,9,6,12,2,21,0.00,2,,160
2013-2-13,59,46,32,35,30,26,82,59,35,30.42,30.30,30.20,10,10,10,24,6,28,0.00,0,,309
2013-2-14,56,43,30,32,29,25,85,63,41,30.55,30.48,30.44,10,10,9,8,2,9,0.00,2,,232
2013-2-15,57,42,26,36,30,23,85,66,47,30.56,30.45,30.27,10,10,7,9,3,9,0.00,0,,271
2013-2-16,59,43,26,38,27,22,92,63,33,30.27,30.12,30.02,10,9,6,29,6,36,0.00,1,,286
2013-2-17,54,40,26,26,23,20,75,52,28,30.17,30.13,30.07,10,10,10,14,3,16,0.00,0,,298
2013-2-18,46,36,26,27,25,23,78,62,45,30.09,29.94,29.81,10,10,10,9,3,10,0.00,4,,258
2013-2-19,49,36,22,28,23,18,88,65,42,29.96,29.84,29.78,10,10,8,9,4,15,0.00,3,,270
2013-2-20,49,35,20,27,22,16,84,62,39,30.05,30.01,29.96,10,10,8,15,2,20,0.00,1,,265
2013-2-21,53,38,23,30,25,19,88,63,38,30.07,30.03,29.98,10,10,9,16,4,22,0.00,2,,233
2013-2-22,55,43,30,34,29,22,85,62,38,30.03,29.84,29.67,10,10,10,32,11,58,0.00,4,,222
2013-2-23,53,40,26,25,22,19,69,49,29,30.30,30.08,29.86,10,10,10,31,11,36,0.00,1,,275
2013-2-24,48,38,28,27,24,19,78,60,42,30.34,30.26,30.04,10,10,10,14,2,,T,3,,270
2013-2-25,54,41,27,29,23,18,78,52,26,30.22,30.04,29.94,10,10,10,33,10,41,0.00,2,,284
2013-2-26,51,37,23,25,21,17,74,52,29,30.35,30.28,30.22,10,10,10,12,3,21,0.00,1,,124
2013-2-27,56,39,22,32,26,18,81,58,35,30.31,30.25,30.22,10,10,10,9,2,12,T,3,,288
2013-2-28,51,46,40,40,37,32,83,73,62,30.36,30.30,30.24,10,10,9,10,3,28,0.03,7,Rain,268